sensor_id;sensor_type;location;lat;lon;timestamp;P1;durP1;ratioP1;P2;durP2;ratioP2
75818;SDS011;64453;51.944;9.796;2023-09-30T00:01:42;7.17;;;2.37;;
75818;SDS011;64453;51.944;9.796;2023-09-30T00:04:11;7.10;;;2.60;;
75818;SDS011;64453;51.944;9.796;2023-09-30T00:06:38;7.30;;;2.43;;
75818;SDS011;64453;51.944;9.796;2023-09-30T00:09:05;5.73;;;2.40;;
75818;SDS011;64453;51.944;9.796;2023-09-30T00:11:32;8.73;;;2.33;;
75818;SDS011;64453;51.944;9.796;2023-09-30T00:13:59;7.03;;;2.70;;
75818;SDS011;64453;51.944;9.796;2023-09-30T00:16:26;6.07;;;2.37;;
75818;SDS011;64453;51.944;9.796;2023-09-30T00:18:53;5.20;;;2.83;;
75818;SDS011;64453;51.944;9.796;2023-09-30T00:21:22;4.60;;;2.77;;
75818;SDS011;64453;51.944;9.796;2023-09-30T00:23:49;5.53;;;2.47;;
75818;SDS011;64453;51.944;9.796;2023-09-30T00:26:15;5.27;;;2.50;;
75818;SDS011;64453;51.944;9.796;2023-09-30T00:28:42;5.63;;;2.33;;
75818;SDS011;64453;51.944;9.796;2023-09-30T00:31:09;7.37;;;2.17;;
75818;SDS011;64453;51.944;9.796;2023-09-30T00:33:36;7.90;;;2.30;;
75818;SDS011;64453;51.944;9.796;2023-09-30T00:36:07;5.20;;;1.97;;
75818;SDS011;64453;51.944;9.796;2023-09-30T00:38:37;6.00;;;3.00;;
75818;SDS011;64453;51.944;9.796;2023-09-30T00:41:05;7.70;;;2.90;;
75818;SDS011;64453;51.944;9.796;2023-09-30T00:43:33;7.23;;;2.57;;
75818;SDS011;64453;51.944;9.796;2023-09-30T00:46:01;4.73;;;2.80;;
75818;SDS011;64453;51.944;9.796;2023-09-30T00:48:33;6.10;;;2.30;;
75818;SDS011;64453;51.944;9.796;2023-09-30T00:51:00;6.40;;;2.17;;
75818;SDS011;64453;51.944;9.796;2023-09-30T00:53:28;6.90;;;2.10;;
75818;SDS011;64453;51.944;9.796;2023-09-30T00:55:57;4.77;;;2.50;;
75818;SDS011;64453;51.944;9.796;2023-09-30T00:58:26;10.07;;;2.80;;
75818;SDS011;64453;51.944;9.796;2023-09-30T01:00:56;6.83;;;2.73;;
75818;SDS011;64453;51.944;9.796;2023-09-30T01:03:24;9.50;;;3.90;;
75818;SDS011;64453;51.944;9.796;2023-09-30T01:05:51;4.37;;;2.57;;
75818;SDS011;64453;51.944;9.796;2023-09-30T01:08:20;6.00;;;2.10;;
75818;SDS011;64453;51.944;9.796;2023-09-30T01:10:47;5.77;;;2.47;;
75818;SDS011;64453;51.944;9.796;2023-09-30T01:13:16;5.20;;;1.83;;
75818;SDS011;64453;51.944;9.796;2023-09-30T01:15:43;3.40;;;1.97;;
75818;SDS011;64453;51.944;9.796;2023-09-30T01:18:09;6.37;;;2.13;;
75818;SDS011;64453;51.944;9.796;2023-09-30T01:20:37;13.40;;;2.80;;
75818;SDS011;64453;51.944;9.796;2023-09-30T01:23:05;2.80;;;2.27;;
75818;SDS011;64453;51.944;9.796;2023-09-30T01:25:32;3.73;;;2.30;;
75818;SDS011;64453;51.944;9.796;2023-09-30T01:28:07;6.03;;;2.87;;
75818;SDS011;64453;51.944;9.796;2023-09-30T01:30:35;6.20;;;2.60;;
75818;SDS011;64453;51.944;9.796;2023-09-30T01:33:02;5.10;;;1.70;;
75818;SDS011;64453;51.944;9.796;2023-09-30T01:35:30;8.47;;;3.00;;
75818;SDS011;64453;51.944;9.796;2023-09-30T01:37:56;7.43;;;3.30;;
75818;SDS011;64453;51.944;9.796;2023-09-30T01:40:25;12.23;;;3.10;;
75818;SDS011;64453;51.944;9.796;2023-09-30T01:42:52;6.67;;;3.00;;
75818;SDS011;64453;51.944;9.796;2023-09-30T01:45:19;7.83;;;2.80;;
75818;SDS011;64453;51.944;9.796;2023-09-30T01:47:45;5.40;;;1.87;;
75818;SDS011;64453;51.944;9.796;2023-09-30T01:50:12;7.10;;;2.70;;
75818;SDS011;64453;51.944;9.796;2023-09-30T01:52:40;3.50;;;2.07;;
75818;SDS011;64453;51.944;9.796;2023-09-30T01:55:07;4.50;;;2.20;;
75818;SDS011;64453;51.944;9.796;2023-09-30T01:57:37;4.60;;;2.03;;
75818;SDS011;64453;51.944;9.796;2023-09-30T02:00:05;6.73;;;2.70;;
75818;SDS011;64453;51.944;9.796;2023-09-30T02:02:34;7.80;;;2.33;;
75818;SDS011;64453;51.944;9.796;2023-09-30T02:05:01;14.20;;;3.63;;
75818;SDS011;64453;51.944;9.796;2023-09-30T02:07:29;4.40;;;2.77;;
75818;SDS011;64453;51.944;9.796;2023-09-30T02:09:56;6.40;;;2.90;;
75818;SDS011;64453;51.944;9.796;2023-09-30T02:12:24;4.20;;;2.00;;
75818;SDS011;64453;51.944;9.796;2023-09-30T02:14:54;8.57;;;2.90;;
75818;SDS011;64453;51.944;9.796;2023-09-30T02:17:21;6.47;;;2.87;;
75818;SDS011;64453;51.944;9.796;2023-09-30T02:19:48;4.53;;;2.20;;
75818;SDS011;64453;51.944;9.796;2023-09-30T02:22:15;4.93;;;2.17;;
75818;SDS011;64453;51.944;9.796;2023-09-30T02:24:43;4.47;;;2.47;;
75818;SDS011;64453;51.944;9.796;2023-09-30T02:27:10;4.43;;;2.80;;
75818;SDS011;64453;51.944;9.796;2023-09-30T02:29:37;2.67;;;2.10;;
75818;SDS011;64453;51.944;9.796;2023-09-30T02:32:05;5.30;;;2.37;;
75818;SDS011;64453;51.944;9.796;2023-09-30T02:34:32;5.00;;;2.90;;
75818;SDS011;64453;51.944;9.796;2023-09-30T02:37:00;2.63;;;2.10;;
75818;SDS011;64453;51.944;9.796;2023-09-30T02:39:27;6.30;;;2.33;;
75818;SDS011;64453;51.944;9.796;2023-09-30T02:41:54;4.07;;;2.07;;
75818;SDS011;64453;51.944;9.796;2023-09-30T02:44:21;5.70;;;2.30;;
75818;SDS011;64453;51.944;9.796;2023-09-30T02:46:49;9.00;;;3.10;;
75818;SDS011;64453;51.944;9.796;2023-09-30T02:49:17;5.63;;;2.60;;
75818;SDS011;64453;51.944;9.796;2023-09-30T02:51:44;4.57;;;2.70;;
75818;SDS011;64453;51.944;9.796;2023-09-30T02:54:11;6.90;;;2.83;;
75818;SDS011;64453;51.944;9.796;2023-09-30T02:56:40;3.30;;;2.00;;
75818;SDS011;64453;51.944;9.796;2023-09-30T02:59:07;6.60;;;2.87;;
75818;SDS011;64453;51.944;9.796;2023-09-30T03:01:35;4.83;;;2.43;;
75818;SDS011;64453;51.944;9.796;2023-09-30T03:04:02;7.77;;;2.33;;
75818;SDS011;64453;51.944;9.796;2023-09-30T03:06:33;6.40;;;2.70;;
75818;SDS011;64453;51.944;9.796;2023-09-30T03:09:02;5.17;;;2.50;;
75818;SDS011;64453;51.944;9.796;2023-09-30T03:11:29;5.93;;;2.50;;
75818;SDS011;64453;51.944;9.796;2023-09-30T03:13:57;5.47;;;2.50;;
75818;SDS011;64453;51.944;9.796;2023-09-30T03:16:24;4.13;;;2.13;;
75818;SDS011;64453;51.944;9.796;2023-09-30T03:18:51;4.93;;;2.30;;
75818;SDS011;64453;51.944;9.796;2023-09-30T03:21:18;3.23;;;2.33;;
75818;SDS011;64453;51.944;9.796;2023-09-30T03:23:46;4.00;;;2.30;;
75818;SDS011;64453;51.944;9.796;2023-09-30T03:26:13;4.30;;;2.80;;
75818;SDS011;64453;51.944;9.796;2023-09-30T03:28:41;3.70;;;2.20;;
75818;SDS011;64453;51.944;9.796;2023-09-30T03:31:07;9.17;;;2.83;;
75818;SDS011;64453;51.944;9.796;2023-09-30T03:33:37;4.87;;;2.80;;
75818;SDS011;64453;51.944;9.796;2023-09-30T03:36:04;6.60;;;2.47;;
75818;SDS011;64453;51.944;9.796;2023-09-30T03:38:35;7.80;;;2.53;;
75818;SDS011;64453;51.944;9.796;2023-09-30T03:41:04;5.63;;;1.83;;
75818;SDS011;64453;51.944;9.796;2023-09-30T03:43:33;5.00;;;2.40;;
75818;SDS011;64453;51.944;9.796;2023-09-30T03:46:02;5.00;;;2.30;;
75818;SDS011;64453;51.944;9.796;2023-09-30T03:48:29;4.53;;;2.03;;
75818;SDS011;64453;51.944;9.796;2023-09-30T03:50:57;6.30;;;2.83;;
75818;SDS011;64453;51.944;9.796;2023-09-30T03:53:24;4.93;;;2.07;;
75818;SDS011;64453;51.944;9.796;2023-09-30T03:55:51;7.53;;;2.80;;
75818;SDS011;64453;51.944;9.796;2023-09-30T03:58:20;7.80;;;2.53;;
75818;SDS011;64453;51.944;9.796;2023-09-30T04:00:47;5.33;;;2.10;;
75818;SDS011;64453;51.944;9.796;2023-09-30T04:03:14;5.20;;;2.63;;
75818;SDS011;64453;51.944;9.796;2023-09-30T04:05:41;4.87;;;2.97;;
75818;SDS011;64453;51.944;9.796;2023-09-30T04:08:08;8.87;;;2.33;;
75818;SDS011;64453;51.944;9.796;2023-09-30T04:10:36;5.10;;;1.90;;
75818;SDS011;64453;51.944;9.796;2023-09-30T04:13:03;6.07;;;2.40;;
75818;SDS011;64453;51.944;9.796;2023-09-30T04:15:31;3.23;;;2.47;;
75818;SDS011;64453;51.944;9.796;2023-09-30T04:18:00;8.83;;;2.10;;
75818;SDS011;64453;51.944;9.796;2023-09-30T04:20:27;7.03;;;2.07;;
75818;SDS011;64453;51.944;9.796;2023-09-30T04:23:04;7.47;;;2.53;;
75818;SDS011;64453;51.944;9.796;2023-09-30T04:25:32;3.73;;;2.63;;
75818;SDS011;64453;51.944;9.796;2023-09-30T04:27:59;6.17;;;2.77;;
75818;SDS011;64453;51.944;9.796;2023-09-30T04:30:27;4.30;;;2.70;;
75818;SDS011;64453;51.944;9.796;2023-09-30T04:32:59;4.93;;;2.27;;
75818;SDS011;64453;51.944;9.796;2023-09-30T04:35:29;6.27;;;2.70;;
75818;SDS011;64453;51.944;9.796;2023-09-30T04:37:56;10.03;;;3.73;;
75818;SDS011;64453;51.944;9.796;2023-09-30T04:40:26;6.40;;;2.27;;
75818;SDS011;64453;51.944;9.796;2023-09-30T04:42:54;7.40;;;2.67;;
75818;SDS011;64453;51.944;9.796;2023-09-30T04:45:23;6.20;;;2.57;;
75818;SDS011;64453;51.944;9.796;2023-09-30T04:47:51;6.60;;;2.80;;
75818;SDS011;64453;51.944;9.796;2023-09-30T04:50:19;3.97;;;2.17;;
75818;SDS011;64453;51.944;9.796;2023-09-30T04:52:47;7.53;;;2.50;;
75818;SDS011;64453;51.944;9.796;2023-09-30T04:55:15;6.20;;;2.57;;
75818;SDS011;64453;51.944;9.796;2023-09-30T04:57:43;3.00;;;2.13;;
75818;SDS011;64453;51.944;9.796;2023-09-30T05:00:13;4.33;;;2.60;;
75818;SDS011;64453;51.944;9.796;2023-09-30T05:02:42;6.23;;;2.47;;
75818;SDS011;64453;51.944;9.796;2023-09-30T05:05:11;6.17;;;2.50;;
75818;SDS011;64453;51.944;9.796;2023-09-30T05:07:39;7.03;;;2.20;;
75818;SDS011;64453;51.944;9.796;2023-09-30T05:10:06;6.07;;;2.53;;
75818;SDS011;64453;51.944;9.796;2023-09-30T05:12:36;7.90;;;2.50;;
75818;SDS011;64453;51.944;9.796;2023-09-30T05:15:04;8.47;;;2.30;;
75818;SDS011;64453;51.944;9.796;2023-09-30T05:17:32;6.80;;;2.67;;
75818;SDS011;64453;51.944;9.796;2023-09-30T05:19:59;4.93;;;2.70;;
75818;SDS011;64453;51.944;9.796;2023-09-30T05:22:26;4.17;;;2.83;;
75818;SDS011;64453;51.944;9.796;2023-09-30T05:24:56;9.60;;;2.90;;
75818;SDS011;64453;51.944;9.796;2023-09-30T05:27:23;7.27;;;2.80;;
75818;SDS011;64453;51.944;9.796;2023-09-30T05:29:50;4.93;;;2.30;;
75818;SDS011;64453;51.944;9.796;2023-09-30T05:32:17;4.97;;;2.20;;
75818;SDS011;64453;51.944;9.796;2023-09-30T05:34:44;8.00;;;2.53;;
75818;SDS011;64453;51.944;9.796;2023-09-30T05:37:12;3.40;;;2.43;;
75818;SDS011;64453;51.944;9.796;2023-09-30T05:39:39;2.97;;;2.13;;
75818;SDS011;64453;51.944;9.796;2023-09-30T05:42:08;9.50;;;3.50;;
75818;SDS011;64453;51.944;9.796;2023-09-30T05:44:36;8.13;;;2.87;;
75818;SDS011;64453;51.944;9.796;2023-09-30T05:47:03;7.00;;;2.87;;
75818;SDS011;64453;51.944;9.796;2023-09-30T05:49:30;6.60;;;2.93;;
75818;SDS011;64453;51.944;9.796;2023-09-30T05:51:58;13.07;;;4.20;;
75818;SDS011;64453;51.944;9.796;2023-09-30T05:54:24;6.20;;;2.80;;
75818;SDS011;64453;51.944;9.796;2023-09-30T05:56:51;6.43;;;2.83;;
75818;SDS011;64453;51.944;9.796;2023-09-30T05:59:20;5.87;;;2.60;;
75818;SDS011;64453;51.944;9.796;2023-09-30T06:01:50;8.07;;;2.93;;
75818;SDS011;64453;51.944;9.796;2023-09-30T06:04:17;6.07;;;2.70;;
75818;SDS011;64453;51.944;9.796;2023-09-30T06:06:44;18.13;;;3.87;;
75818;SDS011;64453;51.944;9.796;2023-09-30T06:09:11;9.77;;;3.17;;
75818;SDS011;64453;51.944;9.796;2023-09-30T06:11:40;6.63;;;3.73;;
75818;SDS011;64453;51.944;9.796;2023-09-30T06:14:07;5.00;;;2.83;;
75818;SDS011;64453;51.944;9.796;2023-09-30T06:16:35;8.07;;;4.93;;
75818;SDS011;64453;51.944;9.796;2023-09-30T06:19:03;8.37;;;3.93;;
75818;SDS011;64453;51.944;9.796;2023-09-30T06:21:31;24.00;;;14.77;;
75818;SDS011;64453;51.944;9.796;2023-09-30T06:23:59;15.10;;;5.17;;
75818;SDS011;64453;51.944;9.796;2023-09-30T06:26:27;9.17;;;4.20;;
75818;SDS011;64453;51.944;9.796;2023-09-30T06:28:54;5.47;;;3.33;;
75818;SDS011;64453;51.944;9.796;2023-09-30T06:31:21;6.77;;;3.83;;
75818;SDS011;64453;51.944;9.796;2023-09-30T06:33:50;7.37;;;3.50;;
75818;SDS011;64453;51.944;9.796;2023-09-30T06:36:18;4.13;;;3.00;;
75818;SDS011;64453;51.944;9.796;2023-09-30T06:38:46;7.57;;;3.63;;
75818;SDS011;64453;51.944;9.796;2023-09-30T06:41:15;6.97;;;3.70;;
75818;SDS011;64453;51.944;9.796;2023-09-30T06:43:43;7.70;;;3.73;;
75818;SDS011;64453;51.944;9.796;2023-09-30T06:46:11;6.90;;;4.07;;
75818;SDS011;64453;51.944;9.796;2023-09-30T06:48:39;8.27;;;5.07;;
75818;SDS011;64453;51.944;9.796;2023-09-30T06:51:07;6.40;;;4.77;;
75818;SDS011;64453;51.944;9.796;2023-09-30T06:53:39;10.60;;;5.87;;
75818;SDS011;64453;51.944;9.796;2023-09-30T06:56:06;10.40;;;6.00;;
75818;SDS011;64453;51.944;9.796;2023-09-30T06:58:34;10.10;;;6.13;;
75818;SDS011;64453;51.944;9.796;2023-09-30T07:01:01;17.00;;;7.83;;
75818;SDS011;64453;51.944;9.796;2023-09-30T07:03:28;12.63;;;7.30;;
75818;SDS011;64453;51.944;9.796;2023-09-30T07:05:55;13.30;;;7.37;;
75818;SDS011;64453;51.944;9.796;2023-09-30T07:08:26;19.60;;;9.20;;
75818;SDS011;64453;51.944;9.796;2023-09-30T07:10:55;13.03;;;8.20;;
75818;SDS011;64453;51.944;9.796;2023-09-30T07:13:22;11.63;;;7.40;;
75818;SDS011;64453;51.944;9.796;2023-09-30T07:15:49;17.40;;;8.50;;
75818;SDS011;64453;51.944;9.796;2023-09-30T07:18:16;13.23;;;7.50;;
75818;SDS011;64453;51.944;9.796;2023-09-30T07:20:43;13.10;;;8.10;;
75818;SDS011;64453;51.944;9.796;2023-09-30T07:23:10;13.50;;;7.77;;
75818;SDS011;64453;51.944;9.796;2023-09-30T07:25:39;13.53;;;7.23;;
75818;SDS011;64453;51.944;9.796;2023-09-30T07:28:07;11.33;;;7.70;;
75818;SDS011;64453;51.944;9.796;2023-09-30T07:30:37;10.60;;;7.70;;
75818;SDS011;64453;51.944;9.796;2023-09-30T07:33:05;11.90;;;6.50;;
75818;SDS011;64453;51.944;9.796;2023-09-30T07:35:32;16.23;;;7.40;;
75818;SDS011;64453;51.944;9.796;2023-09-30T07:38:00;11.30;;;5.63;;
75818;SDS011;64453;51.944;9.796;2023-09-30T07:40:27;12.67;;;6.93;;
75818;SDS011;64453;51.944;9.796;2023-09-30T07:42:55;13.90;;;8.10;;
75818;SDS011;64453;51.944;9.796;2023-09-30T07:45:22;14.43;;;6.60;;
75818;SDS011;64453;51.944;9.796;2023-09-30T07:47:49;10.33;;;6.30;;
75818;SDS011;64453;51.944;9.796;2023-09-30T07:50:17;15.87;;;7.20;;
75818;SDS011;64453;51.944;9.796;2023-09-30T07:52:44;11.60;;;6.20;;
75818;SDS011;64453;51.944;9.796;2023-09-30T07:55:11;7.97;;;6.60;;
75818;SDS011;64453;51.944;9.796;2023-09-30T07:57:39;11.83;;;6.23;;
75818;SDS011;64453;51.944;9.796;2023-09-30T08:00:10;14.13;;;7.00;;
75818;SDS011;64453;51.944;9.796;2023-09-30T08:02:40;13.63;;;5.63;;
75818;SDS011;64453;51.944;9.796;2023-09-30T08:05:08;14.43;;;6.00;;
75818;SDS011;64453;51.944;9.796;2023-09-30T08:07:37;10.80;;;6.20;;
75818;SDS011;64453;51.944;9.796;2023-09-30T08:10:04;9.77;;;5.37;;
75818;SDS011;64453;51.944;9.796;2023-09-30T08:12:37;9.60;;;6.30;;
75818;SDS011;64453;51.944;9.796;2023-09-30T08:15:04;13.23;;;6.10;;
75818;SDS011;64453;51.944;9.796;2023-09-30T08:17:34;10.93;;;6.07;;
75818;SDS011;64453;51.944;9.796;2023-09-30T08:20:02;11.37;;;5.43;;
75818;SDS011;64453;51.944;9.796;2023-09-30T08:22:29;9.90;;;4.73;;
75818;SDS011;64453;51.944;9.796;2023-09-30T08:24:56;11.63;;;5.40;;
75818;SDS011;64453;51.944;9.796;2023-09-30T08:27:24;7.50;;;5.07;;
75818;SDS011;64453;51.944;9.796;2023-09-30T08:29:51;7.07;;;4.33;;
75818;SDS011;64453;51.944;9.796;2023-09-30T08:32:18;11.40;;;4.67;;
75818;SDS011;64453;51.944;9.796;2023-09-30T08:34:47;13.70;;;4.30;;
75818;SDS011;64453;51.944;9.796;2023-09-30T08:37:14;8.77;;;4.73;;
75818;SDS011;64453;51.944;9.796;2023-09-30T08:39:41;7.33;;;4.57;;
75818;SDS011;64453;51.944;9.796;2023-09-30T08:42:09;8.47;;;4.83;;
75818;SDS011;64453;51.944;9.796;2023-09-30T08:44:37;14.20;;;5.20;;
75818;SDS011;64453;51.944;9.796;2023-09-30T08:47:05;11.23;;;5.13;;
75818;SDS011;64453;51.944;9.796;2023-09-30T08:49:33;12.50;;;4.70;;
75818;SDS011;64453;51.944;9.796;2023-09-30T08:52:06;15.07;;;4.70;;
75818;SDS011;64453;51.944;9.796;2023-09-30T08:54:36;7.23;;;4.37;;
75818;SDS011;64453;51.944;9.796;2023-09-30T08:57:03;10.37;;;5.10;;
75818;SDS011;64453;51.944;9.796;2023-09-30T08:59:31;8.13;;;4.03;;
75818;SDS011;64453;51.944;9.796;2023-09-30T09:02:00;8.63;;;4.73;;
75818;SDS011;64453;51.944;9.796;2023-09-30T09:04:28;11.10;;;5.43;;
75818;SDS011;64453;51.944;9.796;2023-09-30T09:06:56;11.63;;;4.43;;
75818;SDS011;64453;51.944;9.796;2023-09-30T09:09:24;12.17;;;4.63;;
75818;SDS011;64453;51.944;9.796;2023-09-30T09:11:51;8.20;;;5.03;;
75818;SDS011;64453;51.944;9.796;2023-09-30T09:14:18;9.30;;;5.13;;
75818;SDS011;64453;51.944;9.796;2023-09-30T09:16:51;15.70;;;5.17;;
75818;SDS011;64453;51.944;9.796;2023-09-30T09:19:21;7.70;;;5.00;;
75818;SDS011;64453;51.944;9.796;2023-09-30T09:21:56;12.00;;;4.87;;
75818;SDS011;64453;51.944;9.796;2023-09-30T09:24:29;9.00;;;5.63;;
75818;SDS011;64453;51.944;9.796;2023-09-30T09:27:04;11.77;;;4.60;;
75818;SDS011;64453;51.944;9.796;2023-09-30T09:29:33;12.10;;;4.90;;
75818;SDS011;64453;51.944;9.796;2023-09-30T09:32:08;9.90;;;4.70;;
75818;SDS011;64453;51.944;9.796;2023-09-30T09:34:37;9.50;;;4.73;;
75818;SDS011;64453;51.944;9.796;2023-09-30T09:39:54;8.77;;;5.20;;
75818;SDS011;64453;51.944;9.796;2023-09-30T09:42:26;6.37;;;4.80;;
75818;SDS011;64453;51.944;9.796;2023-09-30T09:44:55;9.47;;;3.60;;
75818;SDS011;64453;51.944;9.796;2023-09-30T09:47:23;7.70;;;4.37;;
75818;SDS011;64453;51.944;9.796;2023-09-30T09:49:51;9.90;;;4.73;;
75818;SDS011;64453;51.944;9.796;2023-09-30T09:52:20;7.83;;;4.10;;
75818;SDS011;64453;51.944;9.796;2023-09-30T09:54:49;8.40;;;4.80;;
75818;SDS011;64453;51.944;9.796;2023-09-30T09:57:18;8.83;;;4.10;;
75818;SDS011;64453;51.944;9.796;2023-09-30T09:59:46;11.43;;;5.13;;
75818;SDS011;64453;51.944;9.796;2023-09-30T10:02:14;11.07;;;4.53;;
75818;SDS011;64453;51.944;9.796;2023-09-30T10:04:43;6.63;;;4.30;;
75818;SDS011;64453;51.944;9.796;2023-09-30T10:07:11;9.83;;;4.70;;
75818;SDS011;64453;51.944;9.796;2023-09-30T10:09:46;11.07;;;5.13;;
75818;SDS011;64453;51.944;9.796;2023-09-30T10:12:16;9.60;;;3.77;;
75818;SDS011;64453;51.944;9.796;2023-09-30T10:14:46;19.30;;;5.37;;
75818;SDS011;64453;51.944;9.796;2023-09-30T10:17:13;6.77;;;3.90;;
75818;SDS011;64453;51.944;9.796;2023-09-30T10:22:37;9.70;;;4.47;;
75818;SDS011;64453;51.944;9.796;2023-09-30T10:28:00;8.30;;;4.07;;
75818;SDS011;64453;51.944;9.796;2023-09-30T10:31:07;9.47;;;4.57;;
75818;SDS011;64453;51.944;9.796;2023-09-30T10:33:40;9.40;;;4.10;;
75818;SDS011;64453;51.944;9.796;2023-09-30T10:36:57;9.23;;;3.73;;
75818;SDS011;64453;51.944;9.796;2023-09-30T10:51:10;9.87;;;4.10;;
75818;SDS011;64453;51.944;9.796;2023-09-30T10:53:41;7.07;;;3.97;;
75818;SDS011;64453;51.944;9.796;2023-09-30T10:56:14;5.57;;;3.90;;
75818;SDS011;64453;51.944;9.796;2023-09-30T10:58:42;8.00;;;4.10;;
75818;SDS011;64453;51.944;9.796;2023-09-30T11:01:12;11.77;;;4.27;;
75818;SDS011;64453;51.944;9.796;2023-09-30T11:03:40;9.00;;;3.90;;
75818;SDS011;64453;51.944;9.796;2023-09-30T11:06:10;6.93;;;3.83;;
75818;SDS011;64453;51.944;9.796;2023-09-30T11:08:44;7.30;;;3.90;;
75818;SDS011;64453;51.944;9.796;2023-09-30T11:11:13;7.73;;;3.17;;
75818;SDS011;64453;51.944;9.796;2023-09-30T11:13:40;3.77;;;2.70;;
75818;SDS011;64453;51.944;9.796;2023-09-30T11:16:07;5.87;;;3.03;;
75818;SDS011;64453;51.944;9.796;2023-09-30T11:18:36;8.63;;;2.70;;
75818;SDS011;64453;51.944;9.796;2023-09-30T11:21:08;7.13;;;3.23;;
75818;SDS011;64453;51.944;9.796;2023-09-30T11:23:38;5.30;;;2.67;;
75818;SDS011;64453;51.944;9.796;2023-09-30T11:26:06;8.27;;;2.60;;
75818;SDS011;64453;51.944;9.796;2023-09-30T11:28:36;7.23;;;2.90;;
75818;SDS011;64453;51.944;9.796;2023-09-30T11:31:07;9.23;;;3.13;;
75818;SDS011;64453;51.944;9.796;2023-09-30T11:33:51;5.57;;;2.87;;
75818;SDS011;64453;51.944;9.796;2023-09-30T11:36:21;5.13;;;2.87;;
75818;SDS011;64453;51.944;9.796;2023-09-30T11:38:50;6.17;;;3.10;;
75818;SDS011;64453;51.944;9.796;2023-09-30T11:41:19;4.50;;;2.53;;
75818;SDS011;64453;51.944;9.796;2023-09-30T11:43:59;6.87;;;2.07;;
75818;SDS011;64453;51.944;9.796;2023-09-30T11:46:30;5.23;;;1.90;;
75818;SDS011;64453;51.944;9.796;2023-09-30T11:49:00;2.70;;;1.60;;
75818;SDS011;64453;51.944;9.796;2023-09-30T11:51:41;4.83;;;1.77;;
75818;SDS011;64453;51.944;9.796;2023-09-30T11:54:11;2.80;;;2.03;;
75818;SDS011;64453;51.944;9.796;2023-09-30T11:56:41;6.10;;;1.60;;
75818;SDS011;64453;51.944;9.796;2023-09-30T11:59:08;4.60;;;1.77;;
75818;SDS011;64453;51.944;9.796;2023-09-30T12:01:36;10.43;;;2.30;;
75818;SDS011;64453;51.944;9.796;2023-09-30T12:04:05;5.17;;;2.23;;
75818;SDS011;64453;51.944;9.796;2023-09-30T12:06:32;2.73;;;2.27;;
75818;SDS011;64453;51.944;9.796;2023-09-30T12:08:59;4.40;;;2.47;;
75818;SDS011;64453;51.944;9.796;2023-09-30T12:11:28;8.23;;;2.60;;
75818;SDS011;64453;51.944;9.796;2023-09-30T12:13:55;5.40;;;2.80;;
75818;SDS011;64453;51.944;9.796;2023-09-30T12:16:21;6.87;;;3.20;;
75818;SDS011;64453;51.944;9.796;2023-09-30T12:18:49;11.60;;;2.70;;
75818;SDS011;64453;51.944;9.796;2023-09-30T12:21:17;4.83;;;2.77;;
75818;SDS011;64453;51.944;9.796;2023-09-30T12:23:45;7.60;;;2.67;;
75818;SDS011;64453;51.944;9.796;2023-09-30T12:26:13;5.97;;;2.73;;
75818;SDS011;64453;51.944;9.796;2023-09-30T12:28:42;4.93;;;2.57;;
75818;SDS011;64453;51.944;9.796;2023-09-30T12:31:09;6.03;;;2.40;;
75818;SDS011;64453;51.944;9.796;2023-09-30T12:33:36;8.27;;;2.80;;
75818;SDS011;64453;51.944;9.796;2023-09-30T12:36:03;3.50;;;2.03;;
75818;SDS011;64453;51.944;9.796;2023-09-30T12:38:32;3.90;;;2.30;;
75818;SDS011;64453;51.944;9.796;2023-09-30T12:40:59;5.90;;;2.10;;
75818;SDS011;64453;51.944;9.796;2023-09-30T12:43:26;5.30;;;2.30;;
75818;SDS011;64453;51.944;9.796;2023-09-30T12:45:53;3.40;;;2.13;;
75818;SDS011;64453;51.944;9.796;2023-09-30T12:48:20;6.23;;;1.50;;
75818;SDS011;64453;51.944;9.796;2023-09-30T12:50:47;4.33;;;2.13;;
75818;SDS011;64453;51.944;9.796;2023-09-30T12:53:14;10.33;;;2.63;;
75818;SDS011;64453;51.944;9.796;2023-09-30T12:55:42;2.97;;;2.07;;
75818;SDS011;64453;51.944;9.796;2023-09-30T12:58:09;4.50;;;1.90;;
75818;SDS011;64453;51.944;9.796;2023-09-30T13:00:37;3.90;;;1.77;;
75818;SDS011;64453;51.944;9.796;2023-09-30T13:03:04;5.13;;;1.77;;
75818;SDS011;64453;51.944;9.796;2023-09-30T13:05:32;5.13;;;1.87;;
75818;SDS011;64453;51.944;9.796;2023-09-30T13:08:00;2.70;;;1.53;;
75818;SDS011;64453;51.944;9.796;2023-09-30T13:10:27;5.40;;;2.13;;
75818;SDS011;64453;51.944;9.796;2023-09-30T13:12:56;4.67;;;1.70;;
75818;SDS011;64453;51.944;9.796;2023-09-30T13:15:24;5.40;;;2.10;;
75818;SDS011;64453;51.944;9.796;2023-09-30T13:17:51;1.80;;;1.40;;
75818;SDS011;64453;51.944;9.796;2023-09-30T13:20:18;3.80;;;1.90;;
75818;SDS011;64453;51.944;9.796;2023-09-30T13:22:45;4.67;;;1.83;;
75818;SDS011;64453;51.944;9.796;2023-09-30T13:25:12;5.17;;;1.80;;
75818;SDS011;64453;51.944;9.796;2023-09-30T13:27:40;6.97;;;1.77;;
75818;SDS011;64453;51.944;9.796;2023-09-30T13:30:09;8.90;;;2.10;;
75818;SDS011;64453;51.944;9.796;2023-09-30T13:32:37;2.20;;;1.50;;
75818;SDS011;64453;51.944;9.796;2023-09-30T13:35:04;2.20;;;1.50;;
75818;SDS011;64453;51.944;9.796;2023-09-30T13:37:32;3.67;;;1.53;;
75818;SDS011;64453;51.944;9.796;2023-09-30T13:40:00;3.00;;;1.63;;
75818;SDS011;64453;51.944;9.796;2023-09-30T13:42:28;1.87;;;1.47;;
75818;SDS011;64453;51.944;9.796;2023-09-30T13:44:55;4.20;;;1.60;;
75818;SDS011;64453;51.944;9.796;2023-09-30T13:47:24;3.67;;;1.70;;
75818;SDS011;64453;51.944;9.796;2023-09-30T13:49:52;6.23;;;2.80;;
75818;SDS011;64453;51.944;9.796;2023-09-30T13:52:21;6.23;;;1.50;;
75818;SDS011;64453;51.944;9.796;2023-09-30T13:54:48;4.30;;;1.40;;
75818;SDS011;64453;51.944;9.796;2023-09-30T13:57:15;6.30;;;1.13;;
75818;SDS011;64453;51.944;9.796;2023-09-30T13:59:42;2.23;;;1.60;;
75818;SDS011;64453;51.944;9.796;2023-09-30T14:02:08;5.77;;;1.90;;
75818;SDS011;64453;51.944;9.796;2023-09-30T14:04:37;1.57;;;1.47;;
75818;SDS011;64453;51.944;9.796;2023-09-30T14:07:04;3.90;;;1.97;;
75818;SDS011;64453;51.944;9.796;2023-09-30T14:09:33;3.83;;;1.60;;
75818;SDS011;64453;51.944;9.796;2023-09-30T14:12:00;5.03;;;1.97;;
75818;SDS011;64453;51.944;9.796;2023-09-30T14:14:30;3.00;;;1.87;;
75818;SDS011;64453;51.944;9.796;2023-09-30T14:16:59;1.90;;;1.40;;
75818;SDS011;64453;51.944;9.796;2023-09-30T14:19:32;3.97;;;1.60;;
75818;SDS011;64453;51.944;9.796;2023-09-30T14:22:01;6.60;;;1.80;;
75818;SDS011;64453;51.944;9.796;2023-09-30T14:24:29;2.63;;;1.50;;
75818;SDS011;64453;51.944;9.796;2023-09-30T14:26:57;1.40;;;1.30;;
75818;SDS011;64453;51.944;9.796;2023-09-30T14:29:24;3.77;;;2.00;;
75818;SDS011;64453;51.944;9.796;2023-09-30T14:31:51;2.40;;;1.50;;
75818;SDS011;64453;51.944;9.796;2023-09-30T14:34:18;1.87;;;1.47;;
75818;SDS011;64453;51.944;9.796;2023-09-30T14:36:45;3.83;;;1.87;;
75818;SDS011;64453;51.944;9.796;2023-09-30T14:39:14;3.03;;;2.00;;
75818;SDS011;64453;51.944;9.796;2023-09-30T14:41:41;5.20;;;1.93;;
75818;SDS011;64453;51.944;9.796;2023-09-30T14:44:08;3.30;;;1.93;;
75818;SDS011;64453;51.944;9.796;2023-09-30T14:46:37;5.97;;;3.00;;
75818;SDS011;64453;51.944;9.796;2023-09-30T14:49:05;3.63;;;1.47;;
75818;SDS011;64453;51.944;9.796;2023-09-30T14:51:32;4.70;;;2.10;;
75818;SDS011;64453;51.944;9.796;2023-09-30T14:53:59;4.67;;;1.67;;
75818;SDS011;64453;51.944;9.796;2023-09-30T14:56:28;2.67;;;1.67;;
75818;SDS011;64453;51.944;9.796;2023-09-30T14:58:55;4.73;;;2.73;;
75818;SDS011;64453;51.944;9.796;2023-09-30T15:01:23;1.97;;;1.70;;
75818;SDS011;64453;51.944;9.796;2023-09-30T15:03:51;4.83;;;2.00;;
75818;SDS011;64453;51.944;9.796;2023-09-30T15:06:18;2.03;;;1.53;;
75818;SDS011;64453;51.944;9.796;2023-09-30T15:08:46;8.10;;;2.10;;
75818;SDS011;64453;51.944;9.796;2023-09-30T15:11:13;3.30;;;2.20;;
75818;SDS011;64453;51.944;9.796;2023-09-30T15:13:42;4.90;;;2.43;;